Time;durP1;ratioP1;P1;durP2;ratioP2;P2;SDS_P1;SDS_P2;PMS_P1;PMS_P2;Temp;Humidity;BMP_temperature;BMP_pressure;BME280_temperature;BME280_humidity;BME280_pressure;Samples;Min_cycle;Max_cycle;Signal;HPM_P1;HPM_P2
2023/07/30 00:00:13;;;;;;;1.83;1.53;;;23.70;99.90;;;;;;5082751;28;20175;-72
2023/07/30 00:02:39;;;;;;;1.73;1.47;;;23.70;99.90;;;;;;5082936;28;20216;-72
2023/07/30 00:05:04;;;;;;;1.73;1.60;;;23.70;99.90;;;;;;5083676;28;20167;-72
2023/07/30 00:07:30;;;;;;;2.13;1.60;;;23.70;99.90;;;;;;5083508;28;20182;-72
2023/07/30 00:09:56;;;;;;;1.67;1.57;;;23.60;99.90;;;;;;5082625;28;20172;-71
2023/07/30 00:12:21;;;;;;;2.33;1.70;;;23.60;99.90;;;;;;5082455;28;20207;-72
2023/07/30 00:14:47;;;;;;;2.10;1.83;;;23.60;99.90;;;;;;5083547;28;20175;-72
2023/07/30 00:17:13;;;;;;;2.40;1.40;;;23.60;99.90;;;;;;5082501;28;20206;-72
2023/07/30 00:19:48;;;;;;;2.00;1.70;;;23.60;99.90;;;;;;5083090;28;20537;-72
2023/07/30 00:22:13;;;;;;;1.87;1.67;;;23.60;99.90;;;;;;5083339;28;20564;-72
2023/07/30 00:24:39;;;;;;;2.33;1.77;;;23.60;99.90;;;;;;5082860;28;20175;-72
2023/07/30 00:27:05;;;;;;;3.20;1.70;;;23.60;99.90;;;;;;5082343;28;20175;-72
2023/07/30 00:29:32;;;;;;;1.90;1.30;;;23.50;99.90;;;;;;5082850;28;20486;-72
2023/07/30 00:31:58;;;;;;;2.03;1.70;;;23.50;99.90;;;;;;5082928;28;20642;-72
2023/07/30 00:34:24;;;;;;;2.53;1.63;;;23.50;99.90;;;;;;5082782;28;20164;-72
2023/07/30 00:36:50;;;;;;;1.70;1.50;;;23.50;99.90;;;;;;5082830;28;20439;-72
2023/07/30 00:39:15;;;;;;;4.67;1.70;;;23.50;99.90;;;;;;5082539;28;20191;-72
2023/07/30 00:41:41;;;;;;;2.23;1.60;;;23.40;99.90;;;;;;5083682;28;20239;-72
2023/07/30 00:44:07;;;;;;;2.03;1.23;;;23.40;99.90;;;;;;5082464;28;20176;-72
2023/07/30 00:46:33;;;;;;;3.43;1.60;;;23.40;99.90;;;;;;5082219;28;20197;-72
2023/07/30 00:49:05;;;;;;;2.57;1.67;;;23.40;99.90;;;;;;5080926;28;20179;-72
2023/07/30 00:51:33;;;;;;;3.00;1.50;;;23.40;99.90;;;;;;5081824;28;20210;-72
2023/07/30 00:53:59;;;;;;;1.93;1.40;;;23.40;99.90;;;;;;5083286;28;20450;-72
2023/07/30 00:56:25;;;;;;;1.93;1.53;;;23.40;99.90;;;;;;5079838;28;20181;-72
2023/07/30 00:58:52;;;;;;;2.23;1.50;;;23.40;99.90;;;;;;5078193;28;20191;-72
2023/07/30 01:01:18;;;;;;;3.37;2.00;;;23.30;99.90;;;;;;5078906;28;20180;-72
2023/07/30 01:03:44;;;;;;;3.07;1.63;;;23.30;99.90;;;;;;5078843;28;20585;-72
2023/07/30 01:06:10;;;;;;;2.10;1.60;;;23.30;99.90;;;;;;5078701;28;20178;-72
2023/07/30 01:08:36;;;;;;;1.93;1.50;;;23.30;99.90;;;;;;5078922;28;20184;-72
2023/07/30 01:11:03;;;;;;;2.30;1.60;;;23.30;99.90;;;;;;5073654;28;20554;-72
2023/07/30 01:13:30;;;;;;;1.73;1.40;;;23.30;99.90;;;;;;5069693;28;20200;-72
2023/07/30 01:16:03;;;;;;;2.83;1.70;;;23.30;99.90;;;;;;5067855;28;20180;-72
2023/07/30 01:18:29;;;;;;;2.07;1.80;;;23.30;99.90;;;;;;5079055;28;20241;-72
2023/07/30 01:20:58;;;;;;;3.27;1.67;;;23.30;99.90;;;;;;5078833;28;20195;-72
2023/07/30 01:23:25;;;;;;;2.03;1.50;;;23.30;99.90;;;;;;5077689;28;20183;-72
2023/07/30 01:26:17;;;;;;;1.73;1.40;;;23.30;99.90;;;;;;5079005;28;20229;-72
2023/07/30 01:28:47;;;;;;;1.73;1.50;;;23.20;99.90;;;;;;5078755;28;20719;-72
2023/07/30 01:31:17;;;;;;;2.53;1.50;;;23.30;99.90;;;;;;5077371;28;20230;-72
2023/07/30 01:33:49;;;;;;;2.73;1.60;;;23.20;99.90;;;;;;5078622;28;20175;-72
2023/07/30 01:36:16;;;;;;;4.80;1.90;;;23.20;99.90;;;;;;5078584;28;20207;-72
2023/07/30 01:38:43;;;;;;;1.63;1.50;;;23.20;99.90;;;;;;5079139;28;20502;-72
2023/07/30 01:41:09;;;;;;;2.20;1.53;;;23.20;99.90;;;;;;5078547;28;20171;-72
2023/07/30 01:43:35;;;;;;;2.67;1.70;;;23.20;99.90;;;;;;5078146;28;20163;-72
2023/07/30 01:46:01;;;;;;;1.53;1.43;;;23.20;99.90;;;;;;5079034;28;20205;-72
2023/07/30 01:48:27;;;;;;;2.03;1.43;;;23.20;99.90;;;;;;5078039;28;20193;-72
2023/07/30 01:50:52;;;;;;;4.70;1.43;;;23.20;99.90;;;;;;5079001;28;20156;-72
2023/07/30 01:53:26;;;;;;;2.87;1.60;;;23.20;99.90;;;;;;5079374;28;20152;-72
2023/07/30 01:55:52;;;;;;;3.03;1.60;;;23.10;99.90;;;;;;5078459;28;20186;-72
2023/07/30 01:58:18;;;;;;;1.93;1.70;;;23.20;99.90;;;;;;5078687;28;20284;-72
2023/07/30 02:00:44;;;;;;;1.90;1.50;;;23.10;99.90;;;;;;5077343;28;20183;-72
2023/07/30 02:03:10;;;;;;;1.50;1.40;;;23.10;99.90;;;;;;5077447;28;20183;-72
2023/07/30 02:05:36;;;;;;;1.60;1.50;;;23.10;99.90;;;;;;5076679;28;20631;-72
2023/07/30 02:08:01;;;;;;;3.63;1.60;;;23.10;99.90;;;;;;5076343;28;20179;-72
2023/07/30 02:10:27;;;;;;;2.10;1.50;;;23.10;99.90;;;;;;5077933;28;20829;-72
2023/07/30 02:12:53;;;;;;;2.57;1.60;;;23.10;99.90;;;;;;5077391;28;20221;-72
2023/07/30 02:15:19;;;;;;;2.03;1.40;;;23.00;99.90;;;;;;5077809;28;20263;-73
2023/07/30 02:17:44;;;;;;;1.77;1.60;;;23.00;99.90;;;;;;5077799;28;20160;-72
2023/07/30 02:20:16;;;;;;;2.23;1.67;;;23.00;99.90;;;;;;5078832;28;20167;-72
2023/07/30 02:22:41;;;;;;;1.70;1.50;;;23.00;99.90;;;;;;5077222;28;20814;-72
2023/07/30 02:25:07;;;;;;;2.27;1.50;;;23.00;99.90;;;;;;5077486;28;20202;-72
2023/07/30 02:27:33;;;;;;;2.43;1.70;;;23.00;99.90;;;;;;5077829;28;20200;-72
2023/07/30 02:30:05;;;;;;;1.83;1.33;;;23.00;99.90;;;;;;5077692;28;20549;-72
2023/07/30 02:32:30;;;;;;;2.47;1.60;;;23.00;99.90;;;;;;5077313;28;20195;-72
2023/07/30 02:34:56;;;;;;;2.40;1.50;;;23.00;99.90;;;;;;5076760;28;20164;-73
2023/07/30 02:37:21;;;;;;;1.70;1.60;;;23.00;99.90;;;;;;5077810;28;20179;-72
2023/07/30 02:39:48;;;;;;;3.23;1.50;;;23.00;99.90;;;;;;5076511;28;20221;-72
2023/07/30 02:42:14;;;;;;;2.77;1.40;;;22.90;99.90;;;;;;5077029;28;20175;-72
2023/07/30 02:44:39;;;;;;;2.03;1.57;;;23.00;99.90;;;;;;5076871;28;20176;-72
2023/07/30 02:47:05;;;;;;;1.60;1.50;;;22.90;99.90;;;;;;5077041;28;20172;-72
2023/07/30 02:49:31;;;;;;;2.13;1.40;;;22.90;99.90;;;;;;5077924;28;20171;-72
2023/07/30 02:51:57;;;;;;;2.07;1.40;;;22.90;99.90;;;;;;5076840;28;20195;-73
2023/07/30 02:54:23;;;;;;;3.17;1.60;;;22.80;99.90;;;;;;5076817;28;20174;-72
2023/07/30 02:56:48;;;;;;;2.10;1.40;;;22.90;99.90;;;;;;5077195;28;20175;-72
2023/07/30 02:59:14;;;;;;;2.57;1.70;;;22.90;99.90;;;;;;5076835;28;20393;-73
2023/07/30 03:01:39;;;;;;;1.97;1.77;;;22.90;99.90;;;;;;5076529;28;20480;-72
2023/07/30 03:04:05;;;;;;;1.77;1.37;;;22.80;99.90;;;;;;5075913;28;20469;-72
2023/07/30 03:06:31;;;;;;;1.50;1.40;;;22.80;99.90;;;;;;5076424;28;20635;-72
2023/07/30 03:08:57;;;;;;;1.50;1.40;;;22.80;99.90;;;;;;5076723;28;20262;-72
2023/07/30 03:11:23;;;;;;;2.50;1.60;;;22.80;99.90;;;;;;5076966;28;20266;-72
2023/07/30 03:13:51;;;;;;;1.53;1.40;;;22.80;99.90;;;;;;5076141;28;20609;-72
2023/07/30 03:16:17;;;;;;;2.90;1.50;;;22.80;99.90;;;;;;5076075;28;20191;-72
2023/07/30 03:18:42;;;;;;;3.33;1.30;;;22.80;99.90;;;;;;5076119;28;20576;-72
2023/07/30 03:21:08;;;;;;;2.00;1.40;;;22.80;99.90;;;;;;5075960;28;20171;-72
2023/07/30 03:23:34;;;;;;;2.53;1.67;;;22.80;99.90;;;;;;5077060;28;20258;-72
2023/07/30 03:26:00;;;;;;;2.57;1.67;;;22.80;99.90;;;;;;5076826;28;20187;-72
2023/07/30 03:28:26;;;;;;;1.90;1.60;;;22.80;99.90;;;;;;5077478;28;20175;-72
2023/07/30 03:30:51;;;;;;;2.60;1.43;;;22.80;99.90;;;;;;5077522;28;20214;-72
2023/07/30 03:33:20;;;;;;;1.83;1.40;;;22.80;99.90;;;;;;5076524;28;20293;-73
2023/07/30 03:35:45;;;;;;;2.20;1.60;;;22.70;99.90;;;;;;5076703;28;20175;-72
2023/07/30 03:38:11;;;;;;;2.27;1.40;;;22.70;99.90;;;;;;5076687;28;20179;-72
2023/07/30 03:40:37;;;;;;;1.50;1.40;;;22.70;99.90;;;;;;5075912;28;20270;-72
2023/07/30 03:43:21;;;;;;;1.93;1.50;;;22.70;99.90;;;;;;5075714;28;20179;-72
2023/07/30 03:45:48;;;;;;;1.60;1.50;;;22.70;99.90;;;;;;5076244;28;20266;-72
2023/07/30 03:48:14;;;;;;;2.50;1.73;;;22.70;99.90;;;;;;5075752;28;20468;-72
2023/07/30 03:50:40;;;;;;;3.00;1.80;;;22.70;99.90;;;;;;5077038;28;20171;-72
2023/07/30 03:53:07;;;;;;;2.30;1.50;;;22.70;99.90;;;;;;5076847;28;20203;-72
2023/07/30 03:55:32;;;;;;;2.97;1.40;;;22.70;99.90;;;;;;5076382;28;20183;-72
2023/07/30 03:57:58;;;;;;;2.03;1.57;;;22.70;99.90;;;;;;5076883;28;20237;-72
2023/07/30 04:00:24;;;;;;;2.23;1.50;;;22.70;99.90;;;;;;5072995;28;20554;-72
2023/07/30 04:02:50;;;;;;;2.40;1.37;;;22.60;99.90;;;;;;5076126;28;20191;-72
2023/07/30 04:05:15;;;;;;;3.00;1.60;;;22.60;99.90;;;;;;5073021;28;20505;-72
2023/07/30 04:07:41;;;;;;;1.93;1.50;;;22.60;99.90;;;;;;5063491;28;20267;-72
2023/07/30 04:10:12;;;;;;;3.13;1.50;;;22.60;99.90;;;;;;5056432;28;20179;-72
2023/07/30 04:12:37;;;;;;;3.70;1.60;;;22.60;99.90;;;;;;5055494;28;20578;-72
2023/07/30 04:15:03;;;;;;;3.10;1.43;;;22.60;99.80;;;;;;5054920;28;20381;-72
2023/07/30 04:17:29;;;;;;;2.30;1.60;;;22.60;99.90;;;;;;5055819;28;20184;-72
2023/07/30 04:20:00;;;;;;;2.20;1.33;;;22.60;99.90;;;;;;5056199;28;20173;-72
2023/07/30 04:22:26;;;;;;;2.63;1.37;;;22.60;99.80;;;;;;5055460;28;20184;-72
2023/07/30 04:24:51;;;;;;;2.77;1.70;;;22.60;99.90;;;;;;5056403;28;20169;-72
2023/07/30 04:27:17;;;;;;;1.30;1.20;;;22.60;99.70;;;;;;5056437;28;20196;-72
2023/07/30 04:29:49;;;;;;;3.50;1.43;;;22.60;99.70;;;;;;5056048;28;20242;-72
2023/07/30 04:32:14;;;;;;;1.77;1.30;;;22.60;99.70;;;;;;5057834;28;20204;-72
2023/07/30 04:34:40;;;;;;;3.20;1.40;;;22.60;99.60;;;;;;5059506;28;20183;-72
2023/07/30 04:37:06;;;;;;;2.10;1.57;;;22.60;99.80;;;;;;5059178;28;20176;-72
2023/07/30 04:39:42;;;;;;;2.23;1.73;;;22.60;99.80;;;;;;5059587;28;20175;-72
2023/07/30 04:42:07;;;;;;;1.80;1.30;;;22.50;99.80;;;;;;5059301;28;20180;-72
2023/07/30 04:44:33;;;;;;;2.03;1.37;;;22.50;99.80;;;;;;5060023;28;20241;-72
2023/07/30 04:46:58;;;;;;;2.33;1.70;;;22.60;99.70;;;;;;5060090;28;20176;-72
2023/07/30 04:49:24;;;;;;;1.93;1.40;;;22.60;99.60;;;;;;5059308;28;20180;-72
2023/07/30 04:52:01;;;;;;;2.67;1.60;;;22.60;99.60;;;;;;5059829;28;20638;-72
2023/07/30 04:54:27;;;;;;;1.50;1.30;;;22.60;99.70;;;;;;5059768;28;20173;-72
2023/07/30 04:56:53;;;;;;;4.00;1.50;;;22.60;99.80;;;;;;5063730;28;20187;-72
2023/07/30 04:59:19;;;;;;;3.30;1.50;;;22.60;99.80;;;;;;5070492;28;20179;-72
2023/07/30 05:02:01;;;;;;;3.23;1.50;;;22.60;99.40;;;;;;5079027;28;20191;-72
2023/07/30 05:04:27;;;;;;;2.53;1.63;;;22.60;99.60;;;;;;5078757;28;20187;-72
2023/07/30 05:06:52;;;;;;;2.40;1.60;;;22.60;99.70;;;;;;5073910;28;20175;-72
2023/07/30 05:09:18;;;;;;;2.63;1.70;;;22.60;99.60;;;;;;5078652;28;20187;-72
2023/07/30 05:11:49;;;;;;;2.13;1.67;;;22.60;99.60;;;;;;5063408;28;20257;-72
2023/07/30 05:14:15;;;;;;;3.57;1.60;;;22.70;99.60;;;;;;5057791;28;20307;-72
2023/07/30 05:16:40;;;;;;;2.37;1.53;;;22.60;99.50;;;;;;5065616;28;20278;-73
2023/07/30 05:19:06;;;;;;;1.60;1.40;;;22.60;99.40;;;;;;5078664;28;20228;-72
2023/07/30 05:21:34;;;;;;;2.77;1.60;;;22.70;99.50;;;;;;5078630;28;20241;-72
2023/07/30 05:24:00;;;;;;;2.63;1.73;;;22.70;99.50;;;;;;5078926;28;20464;-72
2023/07/30 05:26:25;;;;;;;2.10;1.50;;;22.60;99.50;;;;;;5078546;28;20183;-72
2023/07/30 05:28:51;;;;;;;2.23;1.40;;;22.60;99.60;;;;;;5078398;28;20172;-72
2023/07/30 05:31:17;;;;;;;1.97;1.43;;;22.60;99.50;;;;;;5078329;28;20348;-72
2023/07/30 05:33:43;;;;;;;2.77;1.70;;;22.60;99.40;;;;;;5077797;28;20167;-72
2023/07/30 05:36:08;;;;;;;2.10;1.70;;;22.60;99.50;;;;;;5078414;28;20199;-72
2023/07/30 05:38:34;;;;;;;1.50;1.40;;;22.60;99.20;;;;;;5077676;28;20274;-72
2023/07/30 05:41:09;;;;;;;3.23;1.53;;;22.70;99.30;;;;;;5077846;28;20459;-72
2023/07/30 05:43:35;;;;;;;2.20;1.50;;;22.70;99.20;;;;;;5075812;28;20201;-72
2023/07/30 05:46:00;;;;;;;2.17;1.50;;;22.60;99.20;;;;;;5078608;28;20258;-72
2023/07/30 05:48:26;;;;;;;2.53;1.60;;;22.60;99.30;;;;;;5077983;28;20187;-72
2023/07/30 05:50:52;;;;;;;2.20;1.47;;;22.60;99.20;;;;;;5077775;28;20187;-72
2023/07/30 05:53:18;;;;;;;2.23;1.70;;;22.60;99.20;;;;;;5077794;28;20212;-72
2023/07/30 05:55:43;;;;;;;2.73;1.60;;;22.60;99.30;;;;;;5077932;28;20275;-72
2023/07/30 05:58:09;;;;;;;2.93;1.60;;;22.60;99.20;;;;;;5077416;28;20206;-72
2023/07/30 06:00:45;;;;;;;3.30;1.60;;;22.60;99.20;;;;;;5078307;28;20171;-72
2023/07/30 06:03:11;;;;;;;1.97;1.30;;;22.60;99.10;;;;;;5077800;28;20183;-72
2023/07/30 06:05:43;;;;;;;3.37;1.80;;;22.60;99.20;;;;;;5076512;28;20180;-72
2023/07/30 06:08:09;;;;;;;2.43;1.50;;;22.60;99.10;;;;;;5076505;28;20199;-73
2023/07/30 06:10:36;;;;;;;3.30;1.70;;;22.60;99.00;;;;;;5077973;28;20472;-72
2023/07/30 06:13:02;;;;;;;4.73;1.67;;;22.60;99.00;;;;;;5077900;28;20191;-72
2023/07/30 06:15:34;;;;;;;2.33;1.50;;;22.60;99.00;;;;;;5077995;28;20179;-73
2023/07/30 06:18:02;;;;;;;2.83;1.47;;;22.60;99.20;;;;;;5077598;28;20167;-72
2023/07/30 06:20:30;;;;;;;1.43;1.33;;;22.50;99.20;;;;;;5077699;28;20282;-73
2023/07/30 06:22:55;;;;;;;3.37;1.60;;;22.50;99.00;;;;;;5076614;28;20218;-72
2023/07/30 06:25:23;;;;;;;3.07;1.47;;;22.50;99.20;;;;;;5076635;28;20579;-73
2023/07/30 06:27:49;;;;;;;3.33;1.47;;;22.50;99.10;;;;;;5076460;28;20176;-72
2023/07/30 06:30:15;;;;;;;3.03;1.53;;;22.50;99.10;;;;;;5076299;28;20769;-72
2023/07/30 06:32:43;;;;;;;2.67;1.73;;;22.50;99.10;;;;;;5076030;28;20214;-72
2023/07/30 06:35:09;;;;;;;3.43;1.50;;;22.50;99.00;;;;;;5076387;28;20179;-72
2023/07/30 06:37:46;;;;;;;3.27;1.60;;;22.50;99.10;;;;;;5075606;28;20262;-72
2023/07/30 06:40:12;;;;;;;2.63;1.60;;;22.50;98.90;;;;;;5076067;28;20215;-72
2023/07/30 06:42:38;;;;;;;2.40;1.50;;;22.50;98.70;;;;;;5076454;28;20194;-73
2023/07/30 06:45:04;;;;;;;4.43;1.60;;;22.40;98.80;;;;;;5071577;28;20377;-72
2023/07/30 06:47:30;;;;;;;3.57;1.60;;;22.40;99.10;;;;;;5071907;28;20530;-73
2023/07/30 06:49:55;;;;;;;3.40;1.53;;;22.50;99.00;;;;;;5072432;28;20198;-73
2023/07/30 06:52:21;;;;;;;2.43;1.60;;;22.50;98.90;;;;;;5073273;28;20611;-73
2023/07/30 06:54:47;;;;;;;2.87;1.60;;;22.50;98.90;;;;;;5071477;28;20176;-73
2023/07/30 06:57:12;;;;;;;3.97;1.97;;;22.50;99.00;;;;;;5072443;28;20172;-73
2023/07/30 06:59:38;;;;;;;2.03;1.57;;;22.60;98.80;;;;;;5072073;28;20198;-73
2023/07/30 07:02:05;;;;;;;2.23;1.50;;;22.50;98.90;;;;;;5073102;28;20276;-73
2023/07/30 07:04:31;;;;;;;2.77;1.60;;;22.50;98.80;;;;;;5074958;28;20519;-73
2023/07/30 07:06:57;;;;;;;3.17;1.50;;;22.50;98.90;;;;;;5073416;28;20175;-73
2023/07/30 07:09:22;;;;;;;3.47;1.80;;;22.50;99.00;;;;;;5073875;28;20188;-73
2023/07/30 07:11:48;;;;;;;2.70;1.53;;;22.50;98.90;;;;;;5072607;28;20306;-72
2023/07/30 07:14:14;;;;;;;2.57;1.73;;;22.50;99.00;;;;;;5074707;28;20174;-72
2023/07/30 07:16:40;;;;;;;3.73;1.80;;;22.50;98.90;;;;;;5073311;28;20198;-73
2023/07/30 07:19:06;;;;;;;6.73;2.03;;;22.50;98.90;;;;;;5074079;28;20245;-73
2023/07/30 07:21:31;;;;;;;2.60;1.70;;;22.50;98.90;;;;;;5071772;28;20640;-72
2023/07/30 07:23:57;;;;;;;2.43;1.80;;;22.50;98.90;;;;;;5071580;28;20175;-73
2023/07/30 07:26:23;;;;;;;2.93;1.77;;;22.50;98.80;;;;;;5069469;28;20206;-73
2023/07/30 07:28:49;;;;;;;2.90;1.60;;;22.60;98.60;;;;;;5070364;28;20443;-73
2023/07/30 07:31:17;;;;;;;3.13;1.70;;;22.60;98.50;;;;;;5071368;28;20218;-73
2023/07/30 07:33:45;;;;;;;2.93;1.50;;;22.60;98.50;;;;;;5063886;28;20176;-73
2023/07/30 07:36:13;;;;;;;4.00;1.60;;;22.60;98.50;;;;;;5053118;28;20173;-73
2023/07/30 07:38:42;;;;;;;3.17;1.60;;;22.60;98.20;;;;;;5051829;28;20180;-73
2023/07/30 07:41:17;;;;;;;3.30;1.80;;;22.60;98.30;;;;;;5052515;28;20172;-73
2023/07/30 07:43:43;;;;;;;4.50;1.67;;;22.50;98.50;;;;;;5053005;28;20439;-72
2023/07/30 07:46:13;;;;;;;4.77;2.07;;;22.60;98.50;;;;;;5053176;28;20187;-73
2023/07/30 07:48:46;;;;;;;3.27;1.77;;;22.50;98.40;;;;;;5051624;28;20179;-73
2023/07/30 07:51:13;;;;;;;2.90;1.70;;;22.50;98.10;;;;;;5067369;28;20203;-73
2023/07/30 07:53:42;;;;;;;2.90;1.73;;;22.50;98.50;;;;;;5053267;28;20168;-73
2023/07/30 07:56:08;;;;;;;3.50;1.90;;;22.50;98.40;;;;;;5069790;28;20234;-73
2023/07/30 07:58:35;;;;;;;1.67;1.40;;;22.50;98.20;;;;;;5073929;28;20171;-73
2023/07/30 08:01:01;;;;;;;2.17;1.50;;;22.50;98.20;;;;;;5071413;28;20176;-73
2023/07/30 08:03:29;;;;;;;3.83;1.67;;;22.50;98.30;;;;;;5067302;28;20194;-73
2023/07/30 08:05:55;;;;;;;2.87;1.60;;;22.50;98.10;;;;;;5072399;28;20401;-73
2023/07/30 08:08:20;;;;;;;5.03;1.73;;;22.60;98.30;;;;;;5059472;28;20590;-73
2023/07/30 08:10:47;;;;;;;4.07;1.67;;;22.60;98.20;;;;;;5058193;28;20186;-73
2023/07/30 08:13:20;;;;;;;2.77;1.60;;;22.60;98.10;;;;;;5070784;28;20250;-73
2023/07/30 08:15:46;;;;;;;3.70;1.70;;;22.60;98.20;;;;;;5077620;28;20176;-73
2023/07/30 08:18:12;;;;;;;2.73;1.50;;;22.60;98.30;;;;;;5077381;28;20194;-72
2023/07/30 08:20:38;;;;;;;3.80;1.80;;;22.60;98.30;;;;;;5077604;28;20187;-73
2023/07/30 08:23:04;;;;;;;2.53;1.50;;;22.70;98.20;;;;;;5077625;28;20507;-73
2023/07/30 08:25:29;;;;;;;4.00;1.77;;;22.60;98.50;;;;;;5077572;28;20492;-73
2023/07/30 08:27:55;;;;;;;3.00;1.70;;;22.70;98.70;;;;;;5078009;28;20237;-74
2023/07/30 08:30:21;;;;;;;5.73;1.80;;;22.70;98.80;;;;;;5078096;28;20180;-73
2023/07/30 08:32:52;;;;;;;3.47;1.53;;;22.70;99.00;;;;;;5078479;28;20476;-73
2023/07/30 08:35:17;;;;;;;6.50;1.63;;;22.70;99.20;;;;;;5067365;28;20184;-73
2023/07/30 08:37:43;;;;;;;4.50;1.90;;;22.60;99.30;;;;;;5060498;28;20164;-73
2023/07/30 08:40:09;;;;;;;4.40;1.80;;;22.70;99.40;;;;;;5077063;28;20207;-73
2023/07/30 08:42:37;;;;;;;4.13;1.70;;;22.70;99.50;;;;;;5077701;28;20241;-73
2023/07/30 08:45:08;;;;;;;7.03;1.80;;;22.70;99.40;;;;;;5078273;28;20511;-74
2023/07/30 08:47:35;;;;;;;5.80;2.03;;;22.70;99.60;;;;;;5076931;28;20269;-73
2023/07/30 08:50:01;;;;;;;6.77;1.97;;;22.70;99.50;;;;;;5076516;28;20291;-73
2023/07/30 08:52:35;;;;;;;10.30;1.80;;;22.70;99.50;;;;;;5075992;28;20195;-73
2023/07/30 08:55:03;;;;;;;4.17;1.57;;;22.70;99.50;;;;;;5076550;28;20163;-74
2023/07/30 08:57:30;;;;;;;2.97;1.60;;;22.70;99.60;;;;;;5067757;28;20180;-73
2023/07/30 09:00:10;;;;;;;4.97;1.53;;;22.80;99.50;;;;;;5075709;28;20191;-73
2023/07/30 09:02:41;;;;;;;4.00;1.60;;;22.70;99.30;;;;;;5065386;28;20219;-73
2023/07/30 09:05:07;;;;;;;5.43;1.80;;;22.80;99.40;;;;;;5072821;28;20172;-73
2023/07/30 09:07:32;;;;;;;5.47;1.90;;;22.80;99.30;;;;;;5067424;28;20197;-73
2023/07/30 09:10:00;;;;;;;2.70;1.60;;;22.80;99.30;;;;;;5075897;28;20176;-73
2023/07/30 09:12:33;;;;;;;6.97;1.67;;;22.90;99.30;;;;;;5075512;28;20666;-74
2023/07/30 09:14:59;;;;;;;5.63;1.63;;;22.90;99.00;;;;;;5075873;28;20812;-74
2023/07/30 09:17:27;;;;;;;5.97;2.13;;;23.00;98.90;;;;;;5075261;28;20172;-73
2023/07/30 09:19:53;;;;;;;3.90;1.80;;;23.00;98.80;;;;;;5075307;28;20172;-73
2023/07/30 09:22:29;;;;;;;6.60;1.80;;;23.00;98.60;;;;;;5076019;28;20185;-73
2023/07/30 09:24:57;;;;;;;5.37;1.70;;;23.10;98.50;;;;;;5077104;28;20175;-73
2023/07/30 09:27:26;;;;;;;5.77;1.70;;;23.10;98.20;;;;;;5076147;28;20168;-73
2023/07/30 09:30:05;;;;;;;6.10;2.33;;;23.20;98.00;;;;;;5071876;28;20188;-73
2023/07/30 09:32:32;;;;;;;4.63;2.10;;;23.20;97.90;;;;;;5072659;28;20215;-74
2023/07/30 09:35:09;;;;;;;4.70;1.80;;;23.20;97.90;;;;;;5074997;28;20175;-73
2023/07/30 09:37:41;;;;;;;5.60;2.00;;;23.30;97.70;;;;;;5074714;28;20545;-73
2023/07/30 09:40:10;;;;;;;5.60;1.60;;;23.30;97.60;;;;;;5074445;28;20237;-74
2023/07/30 09:42:39;;;;;;;5.67;1.87;;;23.20;97.60;;;;;;5074426;28;20191;-73
2023/07/30 09:45:08;;;;;;;4.17;1.90;;;23.20;97.70;;;;;;5073099;28;20186;-73
2023/07/30 09:47:37;;;;;;;2.93;1.60;;;23.20;97.70;;;;;;5075158;28;20577;-73
2023/07/30 09:50:03;;;;;;;3.67;1.83;;;23.30;97.60;;;;;;5059963;28;20184;-73
2023/07/30 09:52:33;;;;;;;4.43;2.10;;;23.30;97.30;;;;;;5073863;28;20215;-73
2023/07/30 09:54:59;;;;;;;5.40;2.00;;;23.40;97.30;;;;;;5062128;28;20282;-73
2023/07/30 09:57:24;;;;;;;4.47;1.50;;;23.50;97.00;;;;;;5075130;28;20191;-74
2023/07/30 09:59:53;;;;;;;5.57;2.03;;;23.60;96.60;;;;;;5073683;28;20245;-73
2023/07/30 10:02:19;;;;;;;3.97;1.70;;;23.70;96.30;;;;;;5074088;28;20290;-74
2023/07/30 10:04:50;;;;;;;5.63;1.93;;;23.70;96.30;;;;;;5073622;28;20292;-73
2023/07/30 10:07:21;;;;;;;3.40;1.60;;;23.70;96.20;;;;;;5074217;28;20183;-73
2023/07/30 10:09:50;;;;;;;7.53;2.10;;;23.80;96.00;;;;;;5071041;28;20203;-73
2023/07/30 10:12:21;;;;;;;3.03;1.50;;;23.80;95.80;;;;;;5053924;28;20724;-73
2023/07/30 10:14:47;;;;;;;3.43;1.57;;;23.90;95.60;;;;;;5048618;28;20171;-73
2023/07/30 10:17:13;;;;;;;4.93;1.60;;;23.90;95.50;;;;;;5047681;28;20168;-73
2023/07/30 10:19:39;;;;;;;5.87;1.90;;;23.80;95.50;;;;;;5047432;28;20176;-73
2023/07/30 10:22:14;;;;;;;4.30;1.80;;;23.90;95.20;;;;;;5048998;28;20192;-73
2023/07/30 10:24:40;;;;;;;4.13;1.77;;;24.00;94.80;;;;;;5049029;28;20175;-72
2023/07/30 10:27:07;;;;;;;5.53;1.70;;;24.00;94.70;;;;;;5048084;28;20188;-73
2023/07/30 10:29:35;;;;;;;4.63;1.70;;;24.00;94.20;;;;;;5055196;28;20326;-72
2023/07/30 10:32:03;;;;;;;5.90;1.73;;;23.90;94.50;;;;;;5052960;28;20211;-73
2023/07/30 10:34:46;;;;;;;4.43;1.80;;;23.90;94.40;;;;;;5052252;28;20548;-72
2023/07/30 10:37:18;;;;;;;4.13;1.93;;;23.90;94.20;;;;;;5058942;28;20825;-72
2023/07/30 10:39:50;;;;;;;4.37;2.13;;;24.10;94.00;;;;;;5063751;28;20180;-72
2023/07/30 10:42:18;;;;;;;5.07;1.80;;;24.10;93.90;;;;;;5050511;28;20216;-73
2023/07/30 10:44:45;;;;;;;4.30;1.90;;;24.20;93.60;;;;;;5051806;28;20169;-73
2023/07/30 10:47:12;;;;;;;3.53;1.53;;;24.20;93.50;;;;;;5050827;28;20573;-73
2023/07/30 10:49:48;;;;;;;4.50;1.67;;;24.20;93.40;;;;;;5060366;28;20489;-73
2023/07/30 10:52:13;;;;;;;5.50;1.93;;;24.30;93.00;;;;;;5067381;28;20701;-73
2023/07/30 10:54:39;;;;;;;7.37;2.30;;;24.20;92.80;;;;;;5063894;28;20172;-74
2023/07/30 10:57:05;;;;;;;7.60;2.00;;;24.20;92.40;;;;;;5067025;28;20279;-74
2023/07/30 10:59:36;;;;;;;4.57;1.97;;;24.20;92.90;;;;;;5079196;28;20180;-74
2023/07/30 11:02:02;;;;;;;4.50;1.63;;;24.20;92.50;;;;;;5061961;28;20840;-74
2023/07/30 11:04:28;;;;;;;3.13;1.63;;;24.20;92.60;;;;;;5067703;28;20202;-74
2023/07/30 11:06:54;;;;;;;6.90;1.90;;;24.10;92.50;;;;;;5070304;28;20180;-74
2023/07/30 11:09:27;;;;;;;5.77;2.20;;;24.20;92.60;;;;;;5065456;28;20184;-74
2023/07/30 11:11:55;;;;;;;4.40;1.90;;;24.10;92.40;;;;;;5056695;28;20203;-74
2023/07/30 11:14:27;;;;;;;6.80;2.00;;;24.10;92.20;;;;;;5071396;28;20175;-74
2023/07/30 11:16:58;;;;;;;4.70;1.80;;;24.00;92.30;;;;;;5071980;28;20183;-74
2023/07/30 11:19:24;;;;;;;4.47;1.57;;;24.00;92.50;;;;;;5071928;28;20285;-73
2023/07/30 11:21:52;;;;;;;4.80;1.80;;;24.00;92.30;;;;;;5073735;28;20171;-74
2023/07/30 11:24:17;;;;;;;3.90;1.70;;;24.10;92.20;;;;;;5073523;28;20489;-74
2023/07/30 11:26:43;;;;;;;6.33;2.00;;;24.00;92.10;;;;;;5071582;28;20179;-74
2023/07/30 11:29:20;;;;;;;5.20;2.00;;;24.00;92.10;;;;;;5072370;28;20179;-74
2023/07/30 11:31:47;;;;;;;5.70;1.70;;;24.10;92.10;;;;;;5071036;28;20214;-74
2023/07/30 11:34:18;;;;;;;4.47;1.70;;;24.10;91.50;;;;;;5072413;28;20258;-73
2023/07/30 11:36:44;;;;;;;5.77;1.53;;;24.00;91.50;;;;;;5071579;28;20163;-74
2023/07/30 11:39:13;;;;;;;3.77;1.53;;;24.00;91.40;;;;;;5071501;28;20172;-73
2023/07/30 11:41:39;;;;;;;4.77;1.50;;;24.00;91.60;;;;;;5068803;28;20187;-74
2023/07/30 11:44:04;;;;;;;4.27;1.80;;;24.00;90.90;;;;;;5073766;28;20164;-74
2023/07/30 11:46:32;;;;;;;3.83;1.57;;;24.10;91.00;;;;;;5072456;28;20170;-74
2023/07/30 11:49:17;;;;;;;4.80;1.53;;;24.00;91.40;;;;;;5072570;28;20180;-74
2023/07/30 11:51:43;;;;;;;4.53;1.80;;;24.10;91.30;;;;;;5071560;28;20298;-74
2023/07/30 11:54:23;;;;;;;3.77;1.70;;;24.10;90.90;;;;;;5072577;28;20421;-74
2023/07/30 11:56:55;;;;;;;5.27;1.60;;;24.10;91.20;;;;;;5071708;28;20182;-73
2023/07/30 11:59:22;;;;;;;5.70;1.80;;;24.10;90.80;;;;;;5069806;28;20176;-74
2023/07/30 12:01:48;;;;;;;5.67;1.77;;;24.10;91.00;;;;;;5069106;28;20522;-74
2023/07/30 12:04:14;;;;;;;5.83;1.70;;;24.10;90.80;;;;;;5054549;28;20218;-76
2023/07/30 12:06:53;;;;;;;4.80;1.70;;;24.10;90.80;;;;;;5051362;28;20375;-74
2023/07/30 12:09:22;;;;;;;3.10;1.60;;;24.10;91.10;;;;;;5051530;28;20188;-74
2023/07/30 12:11:59;;;;;;;4.23;1.70;;;24.20;91.10;;;;;;5050960;28;20214;-74
2023/07/30 12:14:32;;;;;;;4.03;1.50;;;24.10;90.60;;;;;;5052801;28;20691;-74
2023/07/30 12:17:00;;;;;;;4.37;1.67;;;24.20;90.40;;;;;;5052810;28;20169;-75
2023/07/30 12:19:29;;;;;;;8.90;1.90;;;24.20;90.30;;;;;;5050001;28;20183;-74
2023/07/30 12:21:54;;;;;;;2.93;1.50;;;24.20;90.80;;;;;;5048116;28;20208;-73
2023/07/30 12:24:22;;;;;;;3.37;1.40;;;24.20;90.80;;;;;;5049254;28;20828;-74
2023/07/30 12:26:47;;;;;;;4.50;1.67;;;24.30;89.60;;;;;;5048861;28;20195;-74
2023/07/30 12:29:14;;;;;;;3.57;1.43;;;24.20;90.00;;;;;;5048613;28;20658;-74
2023/07/30 12:31:40;;;;;;;4.70;1.77;;;24.20;90.80;;;;;;5049023;28;20204;-74
2023/07/30 12:34:05;;;;;;;4.10;1.50;;;24.20;90.90;;;;;;5051106;28;20172;-74
2023/07/30 12:36:32;;;;;;;4.50;1.90;;;24.20;90.70;;;;;;5052584;28;20165;-74
2023/07/30 12:38:58;;;;;;;2.57;1.47;;;24.30;90.40;;;;;;5051546;28;20175;-74
2023/07/30 12:41:26;;;;;;;5.37;1.67;;;24.20;90.00;;;;;;5058590;28;20271;-74
2023/07/30 12:43:53;;;;;;;4.97;1.60;;;24.20;88.60;;;;;;5051892;28;20176;-74
2023/07/30 12:46:20;;;;;;;3.10;1.60;;;24.20;89.70;;;;;;5049502;28;20287;-74
2023/07/30 12:48:45;;;;;;;2.77;1.33;;;24.20;90.50;;;;;;5045466;28;20180;-74